AirNav   TITAN Aviation Fuels
 
 1465 users online  

KRCK H H Coffield Regional Airport
Rockdale, Texas, USA

GOING TO ROCKDALE?


FAA INFORMATION EFFECTIVE 20 MAY 2021

Location

FAA Identifier: RCK
Lat/Long: 30-37-52.9550N 096-59-22.1550W
30-37.882583N 096-59.369250W
30.6313764,-96.9894875
(estimated)
Elevation: 474 ft. / 144 m (estimated)
Variation: 06E (1985)
From city: 2 miles SE of ROCKDALE, TX
Time zone: UTC -5 (UTC -6 during Standard Time)
Zip code: 76567

Airport Operations

Airport use: Open to the public
Activation date: 05/1948
Control tower: no
ARTCC: HOUSTON CENTER
FSS: MONTGOMERY COUNTY FLIGHT SERVICE STATION
NOTAMs facility: CXO (NOTAM-D service available)
Attendance: UNATNDD
Wind indicator: lighted
Segmented circle: yes
Lights: SS-SR
Beacon: white-green (lighted land airport)
ROTG BCN OTS INDEFLY. Operates sunset to sunrise.

Airport Communications

CTAF: 122.9
WX AWOS-3P at T35 (15 nm N): 124.1 (254-605-0856)
WX AWOS-3 at RWV (16 nm SE): 118.35 (979-567-6784)

Nearby radio navigation aids

VOR radial/distance  VOR name  Freq  Var
CLLr265/29.4COLLEGE STATION VORTAC113.3008E
CWKr055/31.8CENTEX VORTAC112.8006E

Airport Services

Fuel available: 100LL
100LL:FOR FUEL CALL 512-446-2511; AFT 1700 & WKENDS CALL 512-446-3436.
Parking: tiedowns
Airframe service: NONE
Powerplant service: NONE

Runway Information

Runway 17/35

Dimensions: 2962 x 50 ft. / 903 x 15 m
Surface: asphalt, in good condition
Runway edge lights: non-standard
NSTD LIRL DUE TO SPACING.
Runway edge markings: NBRS NSTD 48 TALL.
RUNWAY 17  RUNWAY 35
Latitude: 30-38.126500N30-37.638667N
Longitude: 096-59.351333W096-59.387167W
Elevation: 474.0 ft.453.8 ft.
Traffic pattern: leftleft
Markings: NSTD, in good conditionNSTD, in good condition
Obstructions: 17 ft. road, 200 ft. from runway, 81 ft. left of centerline
4 FT FENCE 38 FT FM THLD 114 FT LEFT OF CNTRLN.
35 ft. trees, 200 ft. from runway, 107 ft. left of centerline
4 FT FENCE 185 FT FM THLD ACROSS APCH; 35 FT TREES FM THLD TO 200 FT FM THLD 107 FT LEFT AND 109 FT RIGHT.

Airport Ownership and Management from official FAA records

Ownership: Publicly-owned
Owner: CITY OF ROCKDALE
505 W. CAMERON
ROCKDALE, TX 76567
Phone 512-446-2511
Manager: JASON HUBBELL
505 W. CAMERON
ROCKDALE, TX 76567
Phone (512) 760-6991
DIRECTOR OF PUBLIC WORKS

Airport Operational Statistics

Aircraft based on the field: 12
Single engine airplanes: 12
    
Aircraft operations: avg 69/week *
67% local general aviation
33% transient general aviation
* for 12-month period ending 29 August 2018

Additional Remarks

+40 FT ANT ON HGR E SIDE OF RWY.
FOR CD CTC HOUSTON APCH AT 281-443-5844 TO CNL IFR CALL 281-443-5888.

Instrument Procedures

There are no published instrument procedures at KRCK.

Some nearby airports with instrument procedures:

KRWV - Caldwell Municipal Airport (16 nm SE)
T74 - Taylor Municipal Airport (24 nm W)
KLHB - Hearne Municipal Airport (24 nm NE)
KGYB - Giddings-Lee County Airport (28 nm S)
KCLL - Easterwood Field Airport (32 nm E)
 
Loc | Ops | Rwys | IFR | FBO | Links
Com | Nav | Svcs | Stats | Notes
Area around KRCK (H H Coffield Regional Airport)
 
Road maps at: MapQuest Bing Google
 
Aerial photo
WARNING: Photo may not be current or correct
Aerial photo of KRCK (H H Coffield Regional Airport)
Photo by Terry L. Blodgett
Photo taken 19-Sep-2018
looking northwest.

Do you have a better or more recent aerial photo of H H Coffield Regional Airport that you would like to share? If so, please send us your photo.

 
Sectional chart

 
Airport distance calculator
Flying to H H Coffield Regional Airport? Find the distance to fly.

From to KRCK

Sunrise and sunset
Times for 14-Jun-2021
 Local
(UTC-5)
 Zulu
(UTC)
Morning civil twilight05:5810:58
Sunrise06:2611:26
Sunset20:3101:31
Evening civil twilight20:5801:58

Current date and time
Zulu (UTC)  14-Jun-2021 21:17:19
Local (UTC-5)  14-Jun-2021 16:17:19
 
METAR
KT35 
15nm N 
142055Z AUTO 07004KT 10SM SCT050 BKN065 BKN075 36/22 A2993 RMK AO2 LTG DSNT SE T03630223
KRWV 
16nm SE 
142055Z AUTO 04019G36KT 020V080 10SM -TSRA SCT060 BKN070 BKN090 27/18 A2996 RMK AO2 LTG DSNT ALQDS T02670177
KT74 
24nm W 
142055Z AUTO 01003KT 10SM CLR 37/18 A2994 RMK AO2 LTG DSNT E T03660185
KLHB 
24nm NE 
142055Z AUTO 00000KT 5SM -TSRA SCT022 BKN049 OVC080 28/21 A2995 RMK AO2 LTG DSNT ALQS T02830213
KGYB 
28nm S 
142055Z AUTO 03003KT 4SM HZ SCT060 35/21 A2993 RMK AO2 T03500214
TAF
KCLL 
32nm E 
141721Z 1418/1518 33005KT P6SM FEW050 FM142000 02006KT P6SM VCTS SCT035CB FM150100 07005KT P6SM SCT050 FM150400 VRB03KT P6SM SCT035 FM151600 36005KT P6SM SCT035
NOTAMs
Click for the latest NOTAMs
NOTAMs are issued by the DoD/FAA and will open in a separate window not controlled by AirNav.

 

 
 

FBO, Fuel Providers, and Aircraft Ground Support

  
 Business Name 
 
 Contact 
 
 Services / Description 
 
Fuel Prices
 
Comments
  
City of Rockdale 512-446-2511
no information available

If you are affiliated with City of Rockdale and would like to show here your services, contact info, web link, logo, and more, click here
100LL
AS $4.31 
 Updated 11-Jun-2021
 
   write
AS=Assisted/Self Service
Update Fuel Prices
 

Would you like to see your business listed on this page?

 If your business provides an interesting product or service to pilots, flight crews, aircraft, or users of the H H Coffield Regional Airport, you should consider listing it here.  To start the listing process, click on the button below
 
Add a business
 

Other Pages about H H Coffield Regional Airport

Update a link
 
Copyright © AirNav, LLC. All rights reserved. Privacy Policy  Contact